Time;durP1;ratioP1;P1;durP2;ratioP2;P2;SDS_P1;SDS_P2;PMS_P1;PMS_P2;Temp;Humidity;BMP_temperature;BMP_pressure;BME280_temperature;BME280_humidity;BME280_pressure;Samples;Min_cycle;Max_cycle;Signal;HPM_P1;HPM_P2
2021/04/11 00:02:05;;;;;;;78.00;42.20;;;6.70;99.90;;;;;;3567789;40;20033;-64
2021/04/11 00:04:31;;;;;;;85.75;43.33;;;6.70;99.90;;;;;;3567777;40;20297;-64
2021/04/11 00:06:57;;;;;;;84.85;42.78;;;6.80;99.90;;;;;;3567083;40;20095;-64
2021/04/11 00:09:22;;;;;;;88.35;43.80;;;6.70;99.90;;;;;;3567410;40;20037;-65
2021/04/11 00:11:48;;;;;;;85.50;44.85;;;6.70;99.90;;;;;;3565199;40;20048;-64
2021/04/11 00:14:14;;;;;;;87.03;44.97;;;6.70;99.90;;;;;;3565734;40;20386;-64
2021/04/11 00:16:39;;;;;;;82.35;45.03;;;6.70;99.90;;;;;;3567443;40;20382;-64
2021/04/11 00:19:05;;;;;;;83.47;44.30;;;6.70;99.90;;;;;;3567858;40;20061;-64
2021/04/11 00:21:31;;;;;;;87.13;45.75;;;6.60;99.90;;;;;;3566287;40;20093;-65
2021/04/11 00:23:56;;;;;;;92.30;47.22;;;6.60;99.90;;;;;;3566339;40;20037;-65
2021/04/11 00:26:22;;;;;;;87.82;47.13;;;6.60;99.90;;;;;;3566236;40;20049;-65
2021/04/11 00:28:48;;;;;;;92.22;47.10;;;6.60;99.90;;;;;;3568302;40;20103;-64
2021/04/11 00:31:14;;;;;;;91.75;49.35;;;6.70;99.90;;;;;;3568927;40;20071;-65
2021/04/11 00:33:43;;;;;;;93.97;48.50;;;6.70;99.90;;;;;;3569089;40;20070;-65
2021/04/11 00:36:19;;;;;;;88.93;47.00;;;6.70;99.90;;;;;;3568980;40;20041;-65
2021/04/11 00:38:45;;;;;;;91.63;48.38;;;6.70;99.90;;;;;;3568880;40;20738;-65
2021/04/11 00:41:31;;;;;;;92.03;48.42;;;6.70;99.90;;;;;;3568653;40;20044;-65
2021/04/11 00:43:57;;;;;;;89.95;46.95;;;6.70;99.90;;;;;;3568408;40;20398;-65
2021/04/11 00:46:46;;;;;;;93.30;49.22;;;6.60;99.90;;;;;;3568128;40;20123;-65
2021/04/11 00:49:25;;;;;;;91.20;48.17;;;6.60;99.90;;;;;;3568625;40;20080;-65
2021/04/11 00:51:51;;;;;;;89.70;47.67;;;6.60;99.90;;;;;;3572776;40;20716;-65
2021/04/11 00:54:17;;;;;;;93.13;48.50;;;6.70;99.90;;;;;;3567640;40;20060;-64
2021/04/11 00:56:44;;;;;;;88.55;48.47;;;6.60;99.90;;;;;;3568214;40;20053;-68
2021/04/11 00:59:11;;;;;;;89.65;47.42;;;6.70;99.90;;;;;;3568400;40;20060;-67
2021/04/11 01:01:39;;;;;;;94.05;48.88;;;6.70;99.90;;;;;;3566751;40;20670;-68
2021/04/11 01:04:10;;;;;;;97.85;49.50;;;6.60;99.90;;;;;;3566214;40;20436;-68
2021/04/11 01:06:46;;;;;;;96.65;49.00;;;6.60;99.90;;;;;;3566713;40;20796;-68
2021/04/11 01:09:18;;;;;;;94.85;49.17;;;6.60;99.90;;;;;;3568240;40;20041;-67
2021/04/11 01:11:45;;;;;;;98.15;50.88;;;6.60;99.90;;;;;;3566257;40;20096;-68
2021/04/11 01:14:13;;;;;;;100.47;52.03;;;6.70;99.90;;;;;;3566537;40;20033;-68
2021/04/11 01:16:40;;;;;;;100.75;51.47;;;6.70;99.90;;;;;;3568115;40;20811;-68
2021/04/11 01:19:21;;;;;;;100.13;53.15;;;6.70;99.90;;;;;;3567579;40;20037;-68
2021/04/11 01:22:19;;;;;;;101.72;52.03;;;6.70;99.90;;;;;;3557453;40;20127;-68
2021/04/11 01:24:55;;;;;;;99.78;52.90;;;6.70;99.90;;;;;;3567416;40;20728;-68
2021/04/11 01:27:28;;;;;;;100.70;51.20;;;6.70;99.90;;;;;;3566094;40;20648;-67
2021/04/11 01:29:55;;;;;;;100.57;52.75;;;6.70;99.90;;;;;;3566178;40;20041;-68
2021/04/11 01:32:22;;;;;;;101.28;52.35;;;6.60;99.90;;;;;;3565289;40;20045;-68
2021/04/11 01:34:49;;;;;;;99.90;52.47;;;6.60;99.90;;;;;;3567361;40;20052;-67
2021/04/11 01:37:17;;;;;;;104.72;54.83;;;6.60;99.90;;;;;;3557497;40;20068;-67
2021/04/11 01:39:46;;;;;;;105.13;53.35;;;6.60;99.90;;;;;;3566690;40;20469;-68
2021/04/11 01:42:14;;;;;;;103.53;54.45;;;6.70;99.90;;;;;;3567406;40;20049;-68
2021/04/11 01:44:45;;;;;;;112.88;54.55;;;6.70;99.90;;;;;;3565917;40;20040;-67
2021/04/11 01:47:13;;;;;;;98.00;53.67;;;6.60;99.90;;;;;;3565309;40;20081;-68
2021/04/11 01:49:42;;;;;;;111.47;56.00;;;6.70;99.90;;;;;;3567647;40;20103;-68
2021/04/11 01:52:23;;;;;;;103.40;53.78;;;6.70;99.90;;;;;;3565869;40;20033;-67
2021/04/11 01:54:52;;;;;;;106.40;54.55;;;6.70;99.90;;;;;;3561816;40;20302;-68
2021/04/11 01:57:27;;;;;;;106.63;55.80;;;6.60;99.90;;;;;;3566102;40;20053;-68
2021/04/11 02:00:20;;;;;;;107.25;54.42;;;6.70;99.90;;;;;;3567452;40;20037;-68
2021/04/11 02:02:56;;;;;;;110.32;56.00;;;6.70;99.90;;;;;;3556748;40;20053;-68
2021/04/11 02:05:23;;;;;;;109.30;55.42;;;6.70;99.90;;;;;;3565061;40;20046;-68
2021/04/11 02:07:55;;;;;;;117.55;55.88;;;6.70;99.90;;;;;;3567411;40;20044;-68
2021/04/11 02:10:29;;;;;;;108.13;56.65;;;6.70;99.90;;;;;;3566118;40;20291;-68
2021/04/11 02:13:13;;;;;;;110.70;57.58;;;6.70;99.90;;;;;;3565812;40;20424;-68
2021/04/11 02:15:47;;;;;;;110.50;56.67;;;6.70;99.90;;;;;;3567116;40;20730;-68
2021/04/11 02:18:14;;;;;;;107.55;55.35;;;6.70;99.90;;;;;;3565699;40;20045;-68
2021/04/11 02:20:42;;;;;;;112.60;58.05;;;6.70;99.90;;;;;;3565351;40;20749;-68
2021/04/11 02:23:11;;;;;;;113.72;56.95;;;6.70;99.90;;;;;;3566729;40;20037;-68
2021/04/11 02:25:46;;;;;;;113.45;58.67;;;6.70;99.90;;;;;;3565913;40;20365;-68
2021/04/11 02:28:15;;;;;;;117.10;59.15;;;6.70;99.90;;;;;;3566571;40;20626;-67
2021/04/11 02:30:51;;;;;;;114.85;60.35;;;6.70;99.90;;;;;;3567025;40;20040;-68
2021/04/11 02:33:20;;;;;;;115.53;57.38;;;6.70;99.90;;;;;;3567084;40;20147;-68
2021/04/11 02:35:46;;;;;;;111.03;57.88;;;6.80;99.90;;;;;;3565711;40;20045;-68
2021/04/11 02:38:16;;;;;;;107.10;56.85;;;6.80;99.90;;;;;;3566061;40;20057;-68
2021/04/11 02:40:46;;;;;;;115.82;57.15;;;6.80;99.90;;;;;;3565591;40;20051;-68
2021/04/11 02:43:19;;;;;;;108.82;58.28;;;6.80;99.90;;;;;;3565765;40;20416;-68
2021/04/11 02:45:47;;;;;;;113.78;58.78;;;6.80;99.90;;;;;;3566547;40;20033;-68
2021/04/11 02:48:15;;;;;;;118.60;60.92;;;6.80;99.90;;;;;;3567298;40;20154;-68
2021/04/11 02:50:48;;;;;;;119.53;60.08;;;6.80;99.90;;;;;;3565611;40;20071;-68
2021/04/11 02:53:22;;;;;;;126.00;61.15;;;6.80;99.90;;;;;;3566949;40;20802;-68
2021/04/11 02:55:53;;;;;;;117.40;57.58;;;6.80;99.90;;;;;;3565537;40;20064;-68
2021/04/11 02:58:21;;;;;;;117.10;59.53;;;6.80;99.90;;;;;;3566695;40;20624;-68
2021/04/11 03:01:11;;;;;;;121.28;61.55;;;6.80;99.90;;;;;;3565745;40;20842;-68
2021/04/11 03:03:38;;;;;;;116.57;58.30;;;6.80;99.90;;;;;;3565516;40;20041;-68
2021/04/11 03:06:11;;;;;;;114.97;60.80;;;6.80;99.90;;;;;;3565121;40;20121;-68
2021/04/11 03:08:38;;;;;;;115.05;60.75;;;6.80;99.90;;;;;;3565591;40;20061;-68
2021/04/11 03:11:20;;;;;;;123.82;62.50;;;6.80;99.90;;;;;;3565442;40;20045;-68
2021/04/11 03:13:46;;;;;;;118.13;60.50;;;6.80;99.90;;;;;;3565548;40;20644;-67
2021/04/11 03:16:12;;;;;;;116.03;60.08;;;6.80;99.90;;;;;;3565357;40;20041;-67
2021/04/11 03:18:41;;;;;;;116.40;60.05;;;6.80;99.90;;;;;;3566241;40;20854;-67
2021/04/11 03:21:08;;;;;;;131.00;62.75;;;6.80;99.90;;;;;;3564696;40;20051;-67
2021/04/11 03:23:34;;;;;;;130.80;64.40;;;6.80;99.90;;;;;;3564723;40;20033;-67
2021/04/11 03:26:11;;;;;;;118.28;62.05;;;6.90;99.90;;;;;;3564590;40;20120;-68
2021/04/11 03:28:44;;;;;;;127.40;63.38;;;6.90;99.90;;;;;;3565113;40;20859;-67
2021/04/11 03:31:32;;;;;;;120.38;62.67;;;6.90;99.90;;;;;;3565865;40;20194;-67
2021/04/11 03:34:02;;;;;;;125.38;61.47;;;6.80;99.90;;;;;;3566466;40;20044;-67
2021/04/11 03:36:32;;;;;;;120.18;62.58;;;6.80;99.90;;;;;;3564284;40;20045;-68
2021/04/11 03:38:59;;;;;;;129.10;63.15;;;6.80;99.90;;;;;;3556184;40;20637;-67
2021/04/11 03:41:32;;;;;;;126.40;63.42;;;6.90;99.90;;;;;;3565187;40;20052;-67
2021/04/11 03:44:11;;;;;;;129.25;64.75;;;6.90;99.90;;;;;;3565725;40;20081;-68
2021/04/11 03:47:22;;;;;;;127.38;63.75;;;6.80;99.90;;;;;;3561521;40;20071;-68
2021/04/11 03:49:51;;;;;;;126.20;63.17;;;6.80;99.90;;;;;;3557129;40;20318;-67
2021/04/11 03:52:43;;;;;;;118.53;62.67;;;6.90;99.90;;;;;;3568053;40;20441;-68
2021/04/11 03:55:14;;;;;;;118.72;61.65;;;6.90;99.90;;;;;;3566388;40;20052;-68
2021/04/11 03:57:50;;;;;;;130.90;63.17;;;6.80;99.90;;;;;;3567656;40;20079;-68
2021/04/11 04:00:28;;;;;;;125.20;63.00;;;6.80;99.90;;;;;;3566037;40;20055;-67
2021/04/11 04:03:06;;;;;;;126.68;63.28;;;6.80;99.90;;;;;;3567152;40;20052;-67
2021/04/11 04:05:35;;;;;;;119.55;63.20;;;6.90;99.90;;;;;;3565444;40;20047;-67
2021/04/11 04:08:05;;;;;;;126.25;64.65;;;6.80;99.90;;;;;;3566267;40;20044;-67
2021/04/11 04:10:36;;;;;;;128.48;63.72;;;6.80;99.90;;;;;;3567320;40;20049;-67
2021/04/11 04:13:37;;;;;;;119.88;63.00;;;6.80;99.90;;;;;;3566027;40;20055;-67
2021/04/11 04:16:31;;;;;;;128.50;63.42;;;6.90;99.90;;;;;;3565996;40;20036;-67
2021/04/11 04:19:15;;;;;;;125.15;63.58;;;6.80;99.90;;;;;;3564250;40;20036;-67
2021/04/11 04:22:08;;;;;;;128.77;62.67;;;6.80;99.90;;;;;;3567358;40;20129;-67
2021/04/11 04:25:05;;;;;;;125.25;62.25;;;6.90;99.90;;;;;;3556869;40;20482;-67
2021/04/11 04:28:12;;;;;;;123.40;62.35;;;6.90;99.90;;;;;;3557924;40;20489;-67
2021/04/11 04:31:14;;;;;;;121.75;62.65;;;6.80;99.90;;;;;;3560433;40;20395;-67
2021/04/11 04:33:52;;;;;;;121.45;63.30;;;6.80;99.90;;;;;;3562015;40;20073;-68
2021/04/11 04:36:40;;;;;;;118.10;64.05;;;6.80;99.90;;;;;;3564153;40;20065;-68
2021/04/11 04:39:34;;;;;;;128.70;62.58;;;6.90;99.90;;;;;;3571613;40;20672;-67
2021/04/11 04:42:18;;;;;;;124.47;61.15;;;6.90;99.90;;;;;;3563748;40;20041;-67
2021/04/11 04:45:05;;;;;;;121.13;61.05;;;6.90;99.90;;;;;;3567499;40;20037;-67
2021/04/11 04:47:50;;;;;;;115.47;60.33;;;6.90;99.90;;;;;;3564249;40;20041;-67
2021/04/11 04:50:26;;;;;;;121.70;61.78;;;6.90;99.90;;;;;;3565487;40;20098;-68
2021/04/11 04:53:17;;;;;;;121.13;61.40;;;6.90;99.90;;;;;;3563989;40;20150;-68
2021/04/11 04:55:49;;;;;;;115.30;59.60;;;6.90;99.90;;;;;;3565672;40;20037;-67
2021/04/11 04:58:20;;;;;;;125.43;61.67;;;6.90;99.90;;;;;;3565097;40;20052;-67
2021/04/11 05:01:11;;;;;;;124.50;61.40;;;6.90;99.90;;;;;;3566774;40;20034;-67
2021/04/11 05:03:44;;;;;;;114.93;60.17;;;6.90;99.90;;;;;;3563941;40;20045;-67
2021/04/11 05:06:27;;;;;;;121.75;60.80;;;6.90;99.90;;;;;;3566825;40;20035;-67
2021/04/11 05:09:01;;;;;;;118.97;61.72;;;7.00;99.90;;;;;;3568364;40;20072;-67
2021/04/11 05:11:39;;;;;;;129.65;66.05;;;7.00;99.90;;;;;;3564954;40;20118;-68
2021/04/11 05:14:16;;;;;;;114.07;60.00;;;7.00;99.90;;;;;;3566254;40;20052;-69
2021/04/11 05:16:58;;;;;;;108.53;57.72;;;7.00;99.90;;;;;;3565894;40;20194;-68
2021/04/11 05:19:33;;;;;;;116.82;59.58;;;7.00;99.90;;;;;;3562794;40;20072;-68
2021/04/11 05:22:24;;;;;;;114.60;59.25;;;7.10;99.90;;;;;;3562882;40;20086;-68
2021/04/11 05:25:11;;;;;;;114.15;58.92;;;7.10;99.90;;;;;;3566572;40;20641;-68
2021/04/11 05:28:01;;;;;;;118.45;58.92;;;7.10;99.90;;;;;;3567573;40;20048;-68
2021/04/11 05:30:36;;;;;;;115.13;60.03;;;7.00;99.90;;;;;;3563312;40;20045;-68
2021/04/11 05:33:02;;;;;;;117.88;59.58;;;7.00;99.90;;;;;;3566862;40;20138;-67
2021/04/11 05:35:30;;;;;;;108.32;56.72;;;7.10;99.90;;;;;;3567154;40;20295;-67
2021/04/11 05:38:19;;;;;;;111.63;60.03;;;7.10;99.90;;;;;;3567261;40;20100;-66
2021/04/11 05:41:03;;;;;;;111.60;58.53;;;7.10;99.90;;;;;;3565300;40;20344;-66
2021/04/11 05:43:46;;;;;;;112.22;57.42;;;7.10;99.90;;;;;;3567215;40;20096;-67
2021/04/11 05:46:37;;;;;;;108.90;56.63;;;7.20;99.90;;;;;;3565151;40;20029;-68
2021/04/11 05:49:15;;;;;;;114.05;56.67;;;7.20;99.90;;;;;;3566339;40;20849;-67
2021/04/11 05:51:43;;;;;;;107.63;58.28;;;7.30;99.90;;;;;;3567185;40;20041;-67
2021/04/11 05:54:27;;;;;;;109.32;57.65;;;7.20;99.90;;;;;;3567677;40;20049;-67
2021/04/11 05:57:25;;;;;;;107.85;56.65;;;7.20;99.90;;;;;;3565902;40;20036;-67
2021/04/11 06:00:03;;;;;;;115.80;57.45;;;7.20;99.90;;;;;;3566345;40;20104;-67
2021/04/11 06:02:46;;;;;;;107.35;58.35;;;7.30;99.90;;;;;;3566610;40;20057;-66
2021/04/11 06:05:36;;;;;;;103.50;55.92;;;7.40;99.90;;;;;;3567693;40;20044;-66
2021/04/11 06:08:05;;;;;;;102.30;54.65;;;7.40;99.90;;;;;;3565289;40;20059;-67
2021/04/11 06:10:38;;;;;;;112.53;58.28;;;7.40;99.90;;;;;;3567764;40;20413;-67
2021/04/11 06:13:10;;;;;;;113.63;58.17;;;7.50;99.90;;;;;;3566972;40;20056;-67
2021/04/11 06:15:52;;;;;;;102.90;56.63;;;7.60;99.90;;;;;;3564419;40;20045;-67
2021/04/11 06:18:18;;;;;;;110.00;56.50;;;7.70;99.90;;;;;;3565525;40;20076;-67
2021/04/11 06:20:46;;;;;;;121.70;55.50;;;7.70;99.90;;;;;;3567151;40;20159;-68
2021/04/11 06:23:32;;;;;;;101.03;54.60;;;7.80;99.90;;;;;;3566909;40;20106;-67
2021/04/11 06:26:10;;;;;;;98.78;54.22;;;7.80;99.90;;;;;;3565915;40;20041;-67
2021/04/11 06:28:48;;;;;;;101.38;53.35;;;7.80;99.90;;;;;;3564306;40;20037;-67
2021/04/11 06:31:30;;;;;;;99.20;54.42;;;7.80;99.90;;;;;;3563996;40;20041;-68
2021/04/11 06:34:11;;;;;;;97.35;54.17;;;7.80;99.90;;;;;;3567197;40;20799;-68
2021/04/11 06:36:42;;;;;;;100.38;52.30;;;7.80;99.90;;;;;;3565672;40;20067;-67
2021/04/11 06:39:20;;;;;;;98.60;52.10;;;7.70;99.90;;;;;;3566836;40;20055;-67
2021/04/11 06:42:18;;;;;;;95.90;50.55;;;7.60;99.90;;;;;;3565926;40;20057;-67
2021/04/11 06:45:07;;;;;;;96.90;52.83;;;7.70;99.90;;;;;;3564310;40;20045;-67
2021/04/11 06:48:00;;;;;;;97.10;53.17;;;7.90;99.90;;;;;;3566225;40;20040;-66
2021/04/11 06:50:52;;;;;;;91.93;49.78;;;8.00;99.90;;;;;;3566211;40;20130;-65
2021/04/11 06:53:45;;;;;;;88.53;49.20;;;8.00;99.90;;;;;;3566193;40;20081;-67
2021/04/11 06:56:21;;;;;;;92.05;51.88;;;8.10;99.90;;;;;;3566040;40;20052;-67
2021/04/11 06:58:50;;;;;;;91.03;52.47;;;8.20;99.90;;;;;;3566340;40;20882;-67
2021/04/11 07:01:27;;;;;;;90.32;50.85;;;8.30;99.90;;;;;;3566273;40;20770;-67
2021/04/11 07:04:31;;;;;;;98.57;52.80;;;8.40;99.90;;;;;;3565891;40;20052;-67
2021/04/11 07:07:34;;;;;;;92.68;51.28;;;8.60;99.90;;;;;;3565167;40;20037;-67
2021/04/11 07:10:37;;;;;;;90.45;48.38;;;8.70;99.90;;;;;;3558345;40;20080;-68
2021/04/11 07:13:51;;;;;;;98.85;52.38;;;8.80;99.90;;;;;;3566352;40;20104;-68
2021/04/11 07:16:52;;;;;;;83.50;46.42;;;8.90;99.90;;;;;;3565755;40;20029;-67
2021/04/11 07:19:27;;;;;;;78.43;44.72;;;9.10;99.90;;;;;;3563542;40;20033;-67
2021/04/11 07:22:13;;;;;;;72.97;42.55;;;9.10;99.90;;;;;;3568132;40;20041;-67
2021/04/11 07:25:12;;;;;;;73.00;43.63;;;9.30;99.90;;;;;;3564706;40;20717;-67
2021/04/11 07:27:47;;;;;;;76.25;41.92;;;9.40;99.90;;;;;;3565525;40;20875;-67
2021/04/11 07:30:31;;;;;;;70.20;40.47;;;9.60;99.90;;;;;;3565937;40;20107;-68
2021/04/11 07:33:30;;;;;;;72.57;39.83;;;9.70;99.90;;;;;;3559525;40;20073;-67
2021/04/11 07:36:20;;;;;;;65.38;38.42;;;9.70;99.90;;;;;;3565923;40;20119;-67
2021/04/11 07:39:23;;;;;;;68.38;39.33;;;9.80;99.90;;;;;;3564989;40;20037;-67
2021/04/11 07:42:08;;;;;;;62.80;37.45;;;10.00;99.90;;;;;;3566021;40;20146;-68
2021/04/11 07:44:52;;;;;;;65.03;35.03;;;10.30;99.90;;;;;;3562696;40;20712;-67
2021/04/11 07:48:02;;;;;;;60.03;35.13;;;10.60;99.90;;;;;;3566489;40;20072;-65
2021/04/11 07:51:05;;;;;;;60.78;35.20;;;10.80;99.90;;;;;;3563508;40;20428;-67
2021/04/11 07:54:04;;;;;;;58.38;34.60;;;10.80;99.90;;;;;;3566199;40;20037;-67
2021/04/11 07:56:44;;;;;;;61.17;33.28;;;10.70;99.90;;;;;;3566118;40;20154;-67
2021/04/11 07:59:38;;;;;;;54.88;32.78;;;10.60;99.90;;;;;;3566162;40;20072;-67
2021/04/11 08:02:19;;;;;;;55.13;33.55;;;10.50;99.90;;;;;;3565988;40;20037;-67
2021/04/11 08:05:06;;;;;;;55.15;33.17;;;10.60;99.90;;;;;;3564767;40;20046;-67
2021/04/11 08:08:10;;;;;;;60.70;33.78;;;10.60;99.90;;;;;;3565783;40;20044;-67
2021/04/11 08:11:00;;;;;;;57.58;33.10;;;10.60;99.90;;;;;;3565379;40;20061;-67
2021/04/11 08:13:51;;;;;;;59.65;32.90;;;10.60;99.90;;;;;;3565680;40;20129;-67
2021/04/11 08:16:22;;;;;;;59.17;32.30;;;10.80;99.90;;;;;;3566985;40;20033;-68
2021/04/11 08:19:25;;;;;;;56.80;32.13;;;10.90;99.90;;;;;;3571192;40;20037;-68
2021/04/11 08:22:04;;;;;;;58.08;30.95;;;11.00;99.90;;;;;;3566824;40;20045;-68
2021/04/11 08:25:00;;;;;;;55.35;32.10;;;11.10;99.90;;;;;;3566385;40;20029;-68
2021/04/11 08:28:05;;;;;;;58.58;31.73;;;11.10;99.90;;;;;;3567636;40;20424;-66
2021/04/11 08:31:07;;;;;;;55.70;32.58;;;11.10;99.90;;;;;;3565806;40;20037;-67
2021/04/11 08:34:06;;;;;;;54.67;31.38;;;11.30;99.90;;;;;;3567077;40;20418;-68
2021/04/11 08:37:06;;;;;;;55.17;31.00;;;11.30;99.90;;;;;;3556303;40;20078;-68
2021/04/11 08:40:09;;;;;;;55.20;31.08;;;11.40;99.90;;;;;;3566679;40;20436;-68
2021/04/11 08:43:06;;;;;;;54.55;31.35;;;11.50;99.90;;;;;;3566272;40;20069;-68
2021/04/11 08:45:47;;;;;;;51.63;30.17;;;11.40;99.90;;;;;;3566576;40;20049;-68
2021/04/11 08:48:35;;;;;;;51.97;30.70;;;11.70;99.90;;;;;;3567405;40;20048;-67
2021/04/11 08:51:22;;;;;;;50.85;29.08;;;11.70;99.90;;;;;;3567885;40;20044;-68
2021/04/11 08:54:22;;;;;;;45.00;26.60;;;11.90;99.90;;;;;;3567111;40;20045;-68
2021/04/11 08:57:09;;;;;;;42.45;26.23;;;12.10;99.90;;;;;;3568230;40;20134;-68
2021/04/11 08:59:52;;;;;;;42.05;25.25;;;12.60;99.90;;;;;;3568820;40;20052;-67
2021/04/11 09:02:52;;;;;;;53.28;22.83;;;13.30;99.90;;;;;;3574150;40;20041;-67
2021/04/11 09:05:24;;;;;;;39.63;22.52;;;13.60;99.90;;;;;;3567746;40;20576;-67
2021/04/11 09:08:05;;;;;;;41.05;23.60;;;13.70;99.90;;;;;;3568889;40;20048;-67
2021/04/11 09:10:59;;;;;;;34.65;19.75;;;14.10;99.90;;;;;;3568684;40;20029;-66
2021/04/11 09:13:51;;;;;;;37.63;19.85;;;14.50;99.90;;;;;;3568194;40;20048;-66
2021/04/11 09:16:52;;;;;;;35.53;19.15;;;14.80;99.90;;;;;;3567709;40;20040;-67
2021/04/11 09:19:27;;;;;;;30.95;18.55;;;15.20;99.90;;;;;;3565787;40;20045;-67
2021/04/11 09:22:13;;;;;;;30.67;18.13;;;15.20;99.90;;;;;;3567962;40;20045;-67
2021/04/11 09:25:08;;;;;;;28.08;16.30;;;15.20;99.90;;;;;;3567236;40;20118;-67
2021/04/11 09:28:00;;;;;;;27.63;16.15;;;15.00;99.90;;;;;;3567338;40;20030;-67
2021/04/11 09:30:49;;;;;;;27.27;16.45;;;14.90;99.90;;;;;;3567579;40;20068;-67
2021/04/11 09:33:40;;;;;;;33.13;16.05;;;15.00;99.90;;;;;;3561298;40;20033;-68
2021/04/11 09:36:06;;;;;;;26.70;16.00;;;15.00;99.90;;;;;;3567045;40;20311;-68
2021/04/11 09:39:05;;;;;;;25.95;15.15;;;15.20;99.90;;;;;;3568150;40;20028;-68
2021/04/11 09:41:40;;;;;;;28.80;14.43;;;15.30;99.90;;;;;;3566880;40;20036;-68
2021/04/11 09:44:31;;;;;;;22.85;13.63;;;15.60;99.90;;;;;;3568655;40;20071;-68
2021/04/11 09:47:15;;;;;;;26.42;15.02;;;15.80;99.90;;;;;;3567466;40;20052;-67
2021/04/11 09:49:43;;;;;;;30.15;14.60;;;16.00;99.90;;;;;;3573223;40;20349;-68
2021/04/11 09:52:41;;;;;;;26.55;13.43;;;16.30;99.90;;;;;;3563382;40;20037;-67
2021/04/11 09:55:38;;;;;;;23.00;14.25;;;16.40;99.90;;;;;;3567011;40;20057;-67
2021/04/11 09:58:37;;;;;;;20.70;13.00;;;16.30;99.90;;;;;;3567752;40;20736;-67
2021/04/11 10:01:22;;;;;;;20.67;12.52;;;16.30;99.90;;;;;;3567177;40;20122;-67
2021/04/11 10:04:11;;;;;;;25.30;13.10;;;16.40;99.90;;;;;;3566167;40;20097;-67
2021/04/11 10:07:04;;;;;;;24.52;12.10;;;16.60;99.90;;;;;;3568235;40;20037;-67
2021/04/11 10:09:48;;;;;;;20.90;11.00;;;17.00;99.90;;;;;;3564421;40;20077;-67
2021/04/11 10:12:37;;;;;;;23.10;12.05;;;17.70;99.90;;;;;;3564402;40;20828;-66
2021/04/11 10:15:32;;;;;;;21.85;11.50;;;18.40;98.70;;;;;;3566447;40;20244;-67
2021/04/11 10:18:22;;;;;;;21.55;11.52;;;18.50;97.40;;;;;;3565978;40;20053;-67
2021/04/11 10:20:54;;;;;;;22.30;11.07;;;18.70;97.50;;;;;;3567124;40;20726;-67
2021/04/11 10:23:27;;;;;;;18.33;9.80;;;19.00;98.10;;;;;;3567812;40;20069;-67
2021/04/11 10:26:00;;;;;;;19.63;11.23;;;19.10;97.80;;;;;;3572365;40;20053;-67
2021/04/11 10:28:53;;;;;;;16.48;9.45;;;19.10;97.10;;;;;;3565080;40;20030;-71
2021/04/11 10:31:40;;;;;;;19.05;10.05;;;19.20;97.00;;;;;;3567779;40;20044;-70
2021/04/11 10:34:31;;;;;;;18.20;9.95;;;19.20;95.10;;;;;;3568039;40;20076;-66
2021/04/11 10:37:02;;;;;;;19.30;9.13;;;18.80;94.80;;;;;;3566037;40;20041;-69
2021/04/11 10:39:49;;;;;;;15.35;9.27;;;18.70;96.10;;;;;;3568186;40;20149;-71
2021/04/11 10:42:43;;;;;;;20.00;8.75;;;18.90;96.40;;;;;;3566185;40;20040;-67
2021/04/11 10:45:23;;;;;;;18.60;8.95;;;19.30;93.20;;;;;;3566956;40;20121;-68
2021/04/11 10:48:17;;;;;;;13.90;7.95;;;19.30;92.80;;;;;;3567352;40;20045;-68
2021/04/11 10:50:59;;;;;;;16.60;8.27;;;19.60;93.00;;;;;;3567169;40;20049;-68
2021/04/11 10:53:25;;;;;;;13.68;8.60;;;19.50;92.50;;;;;;3565687;40;20458;-68
2021/04/11 10:56:15;;;;;;;14.88;7.60;;;19.60;92.00;;;;;;3564950;40;20560;-68
2021/04/11 10:59:18;;;;;;;13.07;7.60;;;19.60;92.30;;;;;;3567292;40;20040;-68
2021/04/11 11:02:01;;;;;;;13.73;7.85;;;19.50;88.90;;;;;;3565229;40;20037;-70
2021/04/11 11:05:09;;;;;;;18.17;7.93;;;19.50;86.30;;;;;;3567528;40;20047;-68
2021/04/11 11:07:43;;;;;;;14.85;7.07;;;19.80;83.70;;;;;;3566833;40;20041;-68
2021/04/11 11:10:43;;;;;;;11.63;7.50;;;20.10;85.90;;;;;;3565358;40;20033;-68
2021/04/11 11:13:25;;;;;;;13.18;7.55;;;20.50;82.40;;;;;;3567374;40;20033;-67
2021/04/11 11:16:38;;;;;;;14.52;7.22;;;21.00;76.90;;;;;;3566826;40;20036;-67
2021/04/11 11:19:19;;;;;;;16.55;7.63;;;21.10;77.20;;;;;;3539218;40;20120;-69
2021/04/11 11:22:23;;;;;;;16.00;6.90;;;21.30;76.90;;;;;;3563132;40;20092;-68
2021/04/11 11:25:24;;;;;;;20.35;7.07;;;21.30;74.30;;;;;;3564039;40;20141;-68
2021/04/11 11:28:16;;;;;;;11.43;5.95;;;21.70;75.00;;;;;;3565075;40;20430;-67
2021/04/11 11:31:08;;;;;;;13.40;6.20;;;22.00;69.80;;;;;;3565003;40;20298;-68
2021/04/11 11:33:46;;;;;;;13.07;6.10;;;21.70;65.90;;;;;;3565444;40;20048;-67
2021/04/11 11:36:37;;;;;;;10.98;5.65;;;21.50;69.30;;;;;;3567086;40;20065;-68
2021/04/11 11:39:15;;;;;;;12.38;6.30;;;22.10;65.90;;;;;;3564499;40;20790;-68
2021/04/11 11:42:07;;;;;;;8.57;5.07;;;22.50;65.00;;;;;;3565508;40;20045;-68
2021/04/11 11:44:56;;;;;;;11.77;5.40;;;22.70;65.10;;;;;;3566345;40;20031;-67
2021/04/11 11:47:41;;;;;;;10.95;5.00;;;22.20;64.10;;;;;;3565816;40;20268;-68
2021/04/11 11:50:29;;;;;;;8.05;5.07;;;22.20;65.60;;;;;;3563416;40;20415;-68
2021/04/11 11:53:03;;;;;;;11.23;4.47;;;23.20;65.20;;;;;;3564712;40;20049;-68
2021/04/11 11:56:09;;;;;;;12.13;4.40;;;23.30;59.70;;;;;;3562956;40;20851;-69
2021/04/11 11:58:44;;;;;;;10.57;5.18;;;22.90;62.70;;;;;;3565626;40;20142;-67
2021/04/11 12:01:27;;;;;;;8.65;4.05;;;22.00;60.60;;;;;;3564702;40;20860;-67
2021/04/11 12:04:09;;;;;;;7.25;3.80;;;21.70;64.40;;;;;;3565484;40;20052;-67
2021/04/11 12:06:44;;;;;;;7.47;3.95;;;21.60;61.80;;;;;;3564481;40;20874;-67
2021/04/11 12:09:44;;;;;;;8.07;5.53;;;21.50;62.00;;;;;;3565592;40;20712;-67
2021/04/11 12:12:27;;;;;;;7.82;3.35;;;21.50;65.90;;;;;;3565294;40;20143;-68
2021/04/11 12:15:13;;;;;;;8.70;3.28;;;20.70;62.00;;;;;;3560822;40;20044;-67
2021/04/11 12:17:53;;;;;;;8.77;4.22;;;20.50;67.60;;;;;;3566207;40;20038;-67
2021/04/11 12:20:27;;;;;;;9.45;3.78;;;20.40;65.50;;;;;;3565276;40;20041;-67
2021/04/11 12:23:14;;;;;;;10.73;4.30;;;20.40;66.00;;;;;;3565804;40;20493;-67
2021/04/11 12:25:40;;;;;;;15.20;7.47;;;20.90;64.50;;;;;;3567650;40;20049;-67
2021/04/11 12:28:24;;;;;;;18.98;11.02;;;21.60;63.30;;;;;;3568274;40;20037;-66
2021/04/11 12:30:50;;;;;;;12.88;7.78;;;22.00;63.20;;;;;;3567543;40;20421;-67
2021/04/11 12:33:32;;;;;;;10.15;6.10;;;22.20;60.60;;;;;;3567398;40;20033;-66
2021/04/11 12:36:22;;;;;;;5.85;3.70;;;22.80;58.70;;;;;;3563413;40;20091;-67
2021/04/11 12:38:55;;;;;;;7.35;3.67;;;22.70;57.80;;;;;;3567151;40;20057;-67
2021/04/11 12:41:44;;;;;;;8.13;3.55;;;22.50;57.40;;;;;;3564727;40;20052;-67
2021/04/11 12:44:25;;;;;;;22.52;8.88;;;21.70;61.10;;;;;;3565827;40;20055;-68
2021/04/11 12:47:18;;;;;;;7.68;5.10;;;21.50;62.50;;;;;;3566987;40;20041;-67
2021/04/11 12:49:55;;;;;;;15.52;11.38;;;21.10;62.20;;;;;;3564335;40;20046;-67
2021/04/11 12:52:33;;;;;;;8.02;4.05;;;21.80;63.80;;;;;;3563395;40;20037;-68
2021/04/11 12:55:10;;;;;;;7.95;3.92;;;21.80;60.80;;;;;;3566311;40;20053;-68
2021/04/11 12:57:54;;;;;;;10.32;4.90;;;21.50;64.10;;;;;;3566531;40;20045;-67
2021/04/11 13:00:25;;;;;;;51.35;30.77;;;22.00;63.30;;;;;;3567911;40;20036;-68
2021/04/11 13:02:59;;;;;;;9.23;5.25;;;21.80;63.90;;;;;;3568383;40;20422;-68
2021/04/11 13:06:16;;;;;;;8.68;5.15;;;21.40;64.20;;;;;;3566020;40;20044;-67
2021/04/11 13:09:18;;;;;;;14.00;8.30;;;21.10;65.20;;;;;;3567035;40;20049;-67
2021/04/11 13:11:54;;;;;;;6.30;4.20;;;20.80;65.30;;;;;;3568620;40;20418;-67
2021/04/11 13:14:44;;;;;;;7.22;4.47;;;20.40;67.30;;;;;;3566801;40;20037;-66
2021/04/11 13:17:21;;;;;;;7.80;5.53;;;20.80;67.40;;;;;;3569188;40;20447;-65
2021/04/11 13:20:03;;;;;;;7.50;4.22;;;21.60;67.30;;;;;;3568766;40;20036;-64
2021/04/11 13:22:35;;;;;;;18.65;11.38;;;22.50;63.80;;;;;;3568850;40;20053;-66
2021/04/11 13:25:32;;;;;;;13.52;7.43;;;23.10;63.10;;;;;;3568710;40;20063;-67
2021/04/11 13:28:22;;;;;;;19.60;13.32;;;23.90;60.50;;;;;;3568689;40;20138;-67
2021/04/11 13:30:56;;;;;;;12.25;5.78;;;23.90;57.90;;;;;;3568155;40;20077;-67
2021/04/11 13:33:33;;;;;;;6.70;3.75;;;23.50;58.10;;;;;;3568072;40;20029;-67
2021/04/11 13:36:02;;;;;;;6.07;3.63;;;23.30;59.00;;;;;;3565420;40;20032;-66
2021/04/11 13:38:32;;;;;;;7.95;4.10;;;22.90;59.10;;;;;;3562609;40;20099;-67
2021/04/11 13:41:33;;;;;;;6.40;3.28;;;23.00;61.40;;;;;;3565081;40;20812;-67
2021/04/11 13:44:13;;;;;;;9.95;4.97;;;23.30;60.30;;;;;;3560409;40;20402;-67